createdAt,value
2022-10-17T00:01:22.219Z,4.05
2022-10-17T00:03:48.609Z,4.90
2022-10-17T00:06:15.445Z,4.75
2022-10-17T00:08:43.309Z,4.70
2022-10-17T00:11:18.355Z,4.13
2022-10-17T00:13:47.024Z,4.07
2022-10-17T00:16:14.003Z,4.25
2022-10-17T00:18:40.579Z,4.38
2022-10-17T00:21:14.445Z,5.00
2022-10-17T00:23:40.835Z,4.63
2022-10-17T00:26:07.405Z,4.80
2022-10-17T00:28:33.894Z,4.90
2022-10-17T00:31:03.644Z,4.78
2022-10-17T00:33:30.908Z,4.50
2022-10-17T00:36:08.851Z,3.42
2022-10-17T00:38:36.475Z,4.82
2022-10-17T00:41:03.743Z,5.45
2022-10-17T00:43:31.679Z,5.00
2022-10-17T00:45:58.030Z,5.57
2022-10-17T00:48:25.563Z,4.93
2022-10-17T00:50:52.500Z,3.25
2022-10-17T00:53:19.456Z,5.40
2022-10-17T00:55:50.747Z,5.97
2022-10-17T00:58:18.733Z,6.53
2022-10-17T01:00:47.185Z,6.22
2022-10-17T01:03:14.159Z,6.30
2022-10-17T01:05:41.443Z,6.80
2022-10-17T01:08:08.146Z,5.57
2022-10-17T01:10:48.597Z,6.00
2022-10-17T01:13:44.468Z,6.80
2022-10-17T01:16:45.502Z,7.18
2022-10-17T01:19:33.399Z,5.95
2022-10-17T01:22:17.311Z,6.18
2022-10-17T01:25:02.359Z,6.50
2022-10-17T01:27:45.251Z,5.93
2022-10-17T01:30:42.436Z,6.75
2022-10-17T01:33:15.532Z,5.85
2022-10-17T01:35:51.563Z,6.32
2022-10-17T01:38:23.519Z,5.63
2022-10-17T01:40:55.971Z,6.03
2022-10-17T01:43:33.809Z,6.00
2022-10-17T01:46:07.766Z,4.97
2022-10-17T01:48:40.185Z,5.53
2022-10-17T01:51:17.241Z,6.05
2022-10-17T01:53:52.038Z,6.15
2022-10-17T01:56:22.193Z,5.95
2022-10-17T01:59:13.696Z,5.70
2022-10-17T02:01:42.375Z,5.43
2022-10-17T02:04:10.418Z,5.22
2022-10-17T02:06:37.614Z,5.53
2022-10-17T02:09:16.280Z,5.93
2022-10-17T02:11:50.344Z,6.22
2022-10-17T02:14:30.317Z,5.60
2022-10-17T02:16:56.635Z,6.00
2022-10-17T02:19:38.478Z,6.45
2022-10-17T02:22:34.816Z,6.13
2022-10-17T02:25:20.036Z,7.95
2022-10-17T02:28:09.239Z,5.97
2022-10-17T02:30:48.145Z,5.97
2022-10-17T02:33:39.373Z,5.72
2022-10-17T02:36:11.403Z,5.72
2022-10-17T02:38:39.493Z,6.30
2022-10-17T02:41:10.033Z,6.35
2022-10-17T02:43:38.444Z,6.30
2022-10-17T02:46:06.899Z,5.47
2022-10-17T02:48:47.331Z,5.38
2022-10-17T02:51:30.763Z,6.17
2022-10-17T02:54:03.247Z,6.22
2022-10-17T02:56:36.831Z,6.28
2022-10-17T02:59:06.456Z,6.13
2022-10-17T03:01:35.014Z,5.85
2022-10-17T03:04:09.965Z,6.50
2022-10-17T03:06:36.618Z,6.22
2022-10-17T03:09:03.617Z,6.40
2022-10-17T03:11:30.091Z,5.80
2022-10-17T03:13:56.405Z,6.13
2022-10-17T03:16:22.835Z,5.95
2022-10-17T03:18:50.142Z,6.28
2022-10-17T03:21:16.857Z,6.45
2022-10-17T03:23:43.212Z,6.25
2022-10-17T03:26:09.668Z,5.55
2022-10-17T03:28:36.172Z,6.00
2022-10-17T03:31:15.410Z,6.35
2022-10-17T03:33:42.146Z,5.70
2022-10-17T03:36:11.262Z,5.82
2022-10-17T03:38:38.865Z,5.55
2022-10-17T03:41:05.971Z,5.70
2022-10-17T03:43:32.640Z,6.00
2022-10-17T03:45:59.899Z,5.18
2022-10-17T03:48:27.603Z,5.47
2022-10-17T03:50:59.944Z,5.72
2022-10-17T03:53:26.303Z,5.97
2022-10-17T03:55:52.653Z,5.55
2022-10-17T03:58:19.401Z,5.90
2022-10-17T04:00:45.757Z,5.43
2022-10-17T04:03:16.405Z,5.60
2022-10-17T04:05:43.792Z,5.28
2022-10-17T04:08:10.151Z,5.47
2022-10-17T04:10:36.481Z,6.10
2022-10-17T04:13:02.925Z,6.53
2022-10-17T04:15:29.258Z,6.05
2022-10-17T04:17:55.658Z,5.85
2022-10-17T04:20:22.309Z,5.70
2022-10-17T04:22:48.669Z,6.10
2022-10-17T04:25:15.250Z,5.95
2022-10-17T04:27:41.634Z,5.80
2022-10-17T04:30:08.249Z,4.63
2022-10-17T04:32:41.295Z,5.53
2022-10-17T04:35:08.361Z,5.47
2022-10-17T04:37:34.709Z,5.15
2022-10-17T04:40:01.068Z,5.47
2022-10-17T04:42:29.525Z,5.18
2022-10-17T04:44:56.027Z,4.90
2022-10-17T04:47:22.400Z,5.30
2022-10-17T04:49:48.756Z,5.65
2022-10-17T04:52:15.094Z,5.03
2022-10-17T04:54:41.448Z,5.65
2022-10-17T04:57:07.853Z,4.95
2022-10-17T04:59:34.178Z,5.68
2022-10-17T05:02:00.499Z,5.20
2022-10-17T05:04:27.003Z,5.88
2022-10-17T05:06:53.405Z,5.68
2022-10-17T05:09:19.840Z,5.57
2022-10-17T05:11:46.193Z,5.63
2022-10-17T05:14:12.543Z,5.40
2022-10-17T05:16:39.020Z,5.13
2022-10-17T05:19:05.491Z,5.45
2022-10-17T05:23:59.889Z,6.22
2022-10-17T05:26:26.406Z,5.35
2022-10-17T05:28:53.220Z,5.05
2022-10-17T05:31:19.724Z,4.90
2022-10-17T05:33:46.118Z,4.93
2022-10-17T05:36:12.450Z,5.13
2022-10-17T05:38:38.796Z,4.30
2022-10-17T05:41:05.740Z,5.10
2022-10-17T05:43:33.761Z,5.25
2022-10-17T05:46:06.637Z,4.93
2022-10-17T05:48:33.711Z,4.45
2022-10-17T05:51:02.194Z,4.65
2022-10-17T05:53:33.856Z,5.13
2022-10-17T05:56:02.620Z,5.63
2022-10-17T06:01:15.823Z,4.82
2022-10-17T06:03:42.376Z,4.57
2022-10-17T06:06:11.349Z,4.82
2022-10-17T06:08:38.108Z,4.63
2022-10-17T06:11:07.632Z,4.28
2022-10-17T06:13:36.403Z,4.63
2022-10-17T06:16:02.874Z,4.80
2022-10-17T06:18:29.265Z,4.57
2022-10-17T06:21:03.104Z,4.47
2022-10-17T06:23:29.450Z,4.50
2022-10-17T06:25:59.926Z,4.38
2022-10-17T06:28:26.742Z,4.57
2022-10-17T06:30:53.316Z,4.38
2022-10-17T06:33:20.754Z,4.35
2022-10-17T06:35:54.620Z,4.10
2022-10-17T06:38:21.244Z,4.88
2022-10-17T06:40:47.664Z,4.60
2022-10-17T06:43:14.010Z,4.65
2022-10-17T06:45:40.483Z,4.10
2022-10-17T06:48:07.829Z,4.32
2022-10-17T06:50:34.910Z,4.30
2022-10-17T06:53:01.224Z,4.45
2022-10-17T06:55:28.139Z,4.38
2022-10-17T06:57:56.129Z,4.10
2022-10-17T07:00:23.476Z,4.35
2022-10-17T07:02:50.140Z,4.55
2022-10-17T07:05:16.689Z,4.20
2022-10-17T07:07:44.782Z,3.97
2022-10-17T07:10:12.872Z,3.90
2022-10-17T07:12:39.249Z,4.25
2022-10-17T07:15:06.101Z,3.80
2022-10-17T07:17:32.939Z,4.28
2022-10-17T07:19:59.348Z,4.40
2022-10-17T07:22:25.904Z,3.67
2022-10-17T07:24:52.250Z,3.95
2022-10-17T07:27:18.629Z,3.97
2022-10-17T07:29:44.976Z,4.18
2022-10-17T07:32:11.308Z,4.80
2022-10-17T07:34:37.731Z,3.35
2022-10-17T07:37:04.235Z,3.17
2022-10-17T07:39:30.602Z,3.90
2022-10-17T07:41:58.724Z,3.72
2022-10-17T07:44:25.117Z,4.30
2022-10-17T07:46:51.433Z,4.00
2022-10-17T07:49:17.836Z,3.83
2022-10-17T07:51:44.237Z,3.22
2022-10-17T07:54:10.728Z,3.40
2022-10-17T07:56:43.352Z,3.40
2022-10-17T07:59:09.914Z,3.60
2022-10-17T08:01:36.971Z,4.10
2022-10-17T08:04:06.224Z,3.60
2022-10-17T08:06:33.909Z,3.92
2022-10-17T08:09:01.550Z,3.42
2022-10-17T08:11:27.952Z,3.85
2022-10-17T08:13:54.278Z,3.45
2022-10-17T08:16:20.648Z,3.42
2022-10-17T08:18:46.982Z,3.40
2022-10-17T08:21:13.498Z,3.72
2022-10-17T08:23:40.496Z,3.67
2022-10-17T08:26:10.374Z,3.60
2022-10-17T08:28:39.505Z,3.88
2022-10-17T08:31:11.592Z,4.30
2022-10-17T08:33:38.218Z,4.78
2022-10-17T08:36:05.703Z,3.97
2022-10-17T08:38:35.430Z,2.70
2022-10-17T08:41:14.844Z,3.70
2022-10-17T08:43:51.866Z,3.20
2022-10-17T08:46:19.333Z,2.65
2022-10-17T08:48:47.955Z,3.25
2022-10-17T08:51:20.411Z,2.88
2022-10-17T08:53:56.907Z,2.85
2022-10-17T08:56:49.548Z,3.00
2022-10-17T08:59:23.343Z,3.20
2022-10-17T09:02:01.209Z,3.70
2022-10-17T09:04:54.405Z,3.33
2022-10-17T09:07:32.041Z,3.33
2022-10-17T09:10:23.073Z,3.00
2022-10-17T09:13:40.197Z,3.83
2022-10-17T09:16:31.214Z,4.10
2022-10-17T09:19:07.672Z,4.65
2022-10-17T09:21:45.836Z,4.22
2022-10-17T09:24:25.619Z,4.40
2022-10-17T09:26:54.353Z,4.70
2022-10-17T09:29:24.552Z,4.82
2022-10-17T09:32:03.906Z,4.13
2022-10-17T09:34:32.696Z,4.65
2022-10-17T09:37:00.788Z,4.78
2022-10-17T09:39:31.750Z,5.78
2022-10-17T09:41:59.944Z,4.53
2022-10-17T09:44:34.336Z,4.82
2022-10-17T09:47:03.696Z,5.05
2022-10-17T09:49:38.954Z,5.20
2022-10-17T09:52:11.985Z,5.03
2022-10-17T09:54:45.063Z,4.90
2022-10-17T09:57:13.377Z,5.00
2022-10-17T09:59:43.523Z,4.72
2022-10-17T10:02:12.878Z,4.43
2022-10-17T10:05:06.482Z,5.05
2022-10-17T10:07:36.659Z,5.47
2022-10-17T10:10:06.148Z,5.18
2022-10-17T10:12:38.943Z,5.22
2022-10-17T10:15:35.044Z,5.55
2022-10-17T10:18:01.559Z,4.78
2022-10-17T10:20:36.653Z,5.85
2022-10-17T10:23:21.265Z,5.20
2022-10-17T10:26:04.270Z,4.63
2022-10-17T10:28:36.128Z,5.60
2022-10-17T10:31:06.724Z,4.55
2022-10-17T10:33:40.418Z,5.35
2022-10-17T10:36:09.277Z,5.07
2022-10-17T10:38:39.974Z,4.90
2022-10-17T10:41:09.100Z,4.57
2022-10-17T10:43:40.266Z,5.18
2022-10-17T10:46:16.981Z,5.95
2022-10-17T10:48:53.052Z,5.38
2022-10-17T10:51:26.917Z,4.85
2022-10-17T10:54:10.743Z,5.28
2022-10-17T10:56:41.305Z,5.85
2022-10-17T10:59:23.067Z,5.60
2022-10-17T11:01:56.083Z,5.70
2022-10-17T11:04:46.004Z,6.30
2022-10-17T11:07:30.498Z,5.47
2022-10-17T11:10:05.021Z,5.55
2022-10-17T11:12:39.444Z,5.43
2022-10-17T11:15:47.273Z,5.72
2022-10-17T11:18:33.409Z,5.30
2022-10-17T11:21:09.951Z,5.47
2022-10-17T11:23:47.119Z,5.85
2022-10-17T11:26:25.924Z,6.25
2022-10-17T11:28:57.166Z,6.15
2022-10-17T11:31:29.035Z,5.93
2022-10-17T11:34:00.749Z,5.82
2022-10-17T11:36:35.444Z,6.10
2022-10-17T11:39:08.785Z,6.68
2022-10-17T11:41:46.233Z,6.47
2022-10-17T11:44:24.161Z,7.05
2022-10-17T11:46:57.383Z,6.35
2022-10-17T11:49:40.282Z,6.82
2022-10-17T11:52:51.871Z,6.32
2022-10-17T11:55:27.334Z,5.22
2022-10-17T11:58:18.793Z,6.05
2022-10-17T12:00:51.282Z,5.13
2022-10-17T12:03:55.377Z,5.03
2022-10-17T12:07:00.984Z,5.00
2022-10-17T12:09:42.687Z,4.80
2022-10-17T12:12:09.295Z,4.80
2022-10-17T12:14:46.437Z,6.00
2022-10-17T12:17:35.375Z,4.43
2022-10-17T12:20:21.243Z,6.47
2022-10-17T12:22:49.612Z,4.60
2022-10-17T12:25:22.670Z,5.30
2022-10-17T12:27:50.768Z,4.60
2022-10-17T12:30:21.143Z,5.05
2022-10-17T12:33:19.035Z,4.88
2022-10-17T12:35:45.349Z,5.35
2022-10-17T12:38:17.931Z,4.75
2022-10-17T12:40:48.636Z,5.13
2022-10-17T12:43:15.359Z,5.82
2022-10-17T12:45:51.876Z,5.43
2022-10-17T12:48:33.731Z,5.30
2022-10-17T12:51:34.884Z,6.10
2022-10-17T12:54:11.829Z,6.30
2022-10-17T12:56:47.105Z,5.60
2022-10-17T12:59:23.987Z,6.10
2022-10-17T13:01:55.007Z,5.55
2022-10-17T13:04:21.876Z,5.45
2022-10-17T13:06:55.234Z,5.75
2022-10-17T13:09:24.796Z,5.45
2022-10-17T13:11:51.632Z,6.10
2022-10-17T13:14:20.672Z,6.47
2022-10-17T13:16:58.420Z,6.07
2022-10-17T13:19:32.201Z,6.80
2022-10-17T13:22:05.318Z,5.78
2022-10-17T13:24:34.440Z,12.52
2022-10-17T13:27:01.639Z,7.10
2022-10-17T13:29:29.684Z,7.00
2022-10-17T13:32:01.282Z,6.88
2022-10-17T13:34:28.416Z,7.63
2022-10-17T13:36:57.796Z,8.48
2022-10-17T13:39:45.306Z,8.95
2022-10-17T13:42:24.463Z,7.28
2022-10-17T13:44:51.372Z,6.40
2022-10-17T13:47:30.741Z,7.95
2022-10-17T13:49:58.257Z,7.55
2022-10-17T13:52:28.321Z,7.10
2022-10-17T13:55:05.633Z,7.00
2022-10-17T13:57:32.854Z,6.95
2022-10-17T14:00:19.527Z,9.65
2022-10-17T14:02:46.435Z,9.68
2022-10-17T14:05:19.863Z,7.22
2022-10-17T14:08:11.351Z,7.63
2022-10-17T14:10:42.978Z,8.13
2022-10-17T14:13:30.259Z,8.48
2022-10-17T14:16:00.672Z,8.52
2022-10-17T14:18:35.919Z,8.05
2022-10-17T14:23:52.769Z,7.55
2022-10-17T14:26:21.899Z,8.32
2022-10-17T14:29:03.815Z,7.10
2022-10-17T14:31:33.954Z,7.38
2022-10-17T14:34:02.734Z,7.75
2022-10-17T14:36:35.842Z,7.70
2022-10-17T14:39:03.629Z,7.72
2022-10-17T14:41:48.826Z,8.30
2022-10-17T14:44:29.909Z,7.53
2022-10-17T14:47:00.201Z,7.15
2022-10-17T14:49:39.207Z,7.53
2022-10-17T14:52:16.826Z,7.65
2022-10-17T14:54:46.659Z,8.43
2022-10-17T14:57:23.904Z,7.97
2022-10-17T14:59:55.093Z,8.90
2022-10-17T15:02:27.387Z,7.50
2022-10-17T15:04:54.869Z,7.18
2022-10-17T15:07:23.644Z,6.50
2022-10-17T15:09:52.687Z,7.82
2022-10-17T15:12:22.136Z,6.85
2022-10-17T15:14:49.007Z,6.97
2022-10-17T15:17:20.501Z,7.40
2022-10-17T15:19:47.761Z,7.40
2022-10-17T15:22:15.939Z,7.00
2022-10-17T15:24:42.435Z,7.90
2022-10-17T15:27:16.218Z,7.45
2022-10-17T15:29:42.666Z,7.65
2022-10-17T15:32:09.047Z,8.93
2022-10-17T15:34:35.541Z,8.43
2022-10-17T15:37:03.641Z,14.82
2022-10-17T15:39:29.957Z,11.32
2022-10-17T15:41:56.457Z,8.38
2022-10-17T15:44:23.423Z,8.90
2022-10-17T15:46:49.757Z,8.20
2022-10-17T15:49:19.614Z,11.27
2022-10-17T15:51:45.984Z,8.18
2022-10-17T15:56:52.810Z,8.27
2022-10-17T15:59:22.996Z,8.00
2022-10-17T16:01:49.626Z,7.95
2022-10-17T16:04:16.011Z,7.35
2022-10-17T16:06:43.021Z,7.75
2022-10-17T16:09:09.750Z,7.82
2022-10-17T16:11:41.695Z,7.82
2022-10-17T16:14:12.770Z,7.28
2022-10-17T16:16:39.357Z,7.65
2022-10-17T16:19:05.840Z,7.70
2022-10-17T16:21:35.223Z,7.70
2022-10-17T16:24:02.592Z,9.43
2022-10-17T16:26:29.435Z,10.15
2022-10-17T16:28:57.747Z,7.32
2022-10-17T16:31:30.835Z,8.18
2022-10-17T16:33:59.265Z,7.53
2022-10-17T16:36:26.273Z,7.43
2022-10-17T16:38:54.012Z,7.47
2022-10-17T16:41:26.460Z,7.68
2022-10-17T16:43:55.298Z,7.32
2022-10-17T16:46:22.909Z,8.25
2022-10-17T16:48:50.044Z,8.27
2022-10-17T16:51:19.065Z,8.38
2022-10-17T16:53:47.104Z,8.27
2022-10-17T16:56:16.948Z,8.23
2022-10-17T16:58:44.202Z,8.05
2022-10-17T17:01:13.840Z,8.80
2022-10-17T17:03:43.574Z,8.10
2022-10-17T17:06:14.511Z,8.88
2022-10-17T17:08:42.644Z,8.73
2022-10-17T17:11:11.396Z,9.27
2022-10-17T17:13:38.073Z,8.73
2022-10-17T17:18:39.590Z,8.82
2022-10-17T17:21:10.026Z,9.48
2022-10-17T17:23:39.955Z,9.25
2022-10-17T17:26:16.188Z,9.05
2022-10-17T17:28:43.198Z,9.40
2022-10-17T17:31:22.111Z,9.20
2022-10-17T17:33:49.409Z,9.90
2022-10-17T17:36:19.960Z,9.85
2022-10-17T17:38:47.220Z,9.75
2022-10-17T17:41:18.409Z,9.63
2022-10-17T17:43:48.872Z,11.95
2022-10-17T17:46:20.695Z,12.93
2022-10-17T17:48:51.477Z,10.90
2022-10-17T17:51:29.418Z,10.52
2022-10-17T17:53:57.332Z,10.60
2022-10-17T17:56:29.203Z,10.98
2022-10-17T17:58:58.346Z,10.70
2022-10-17T18:01:27.421Z,11.20
2022-10-17T18:03:55.360Z,11.45
2022-10-17T18:06:23.251Z,10.60
2022-10-17T18:08:56.174Z,11.50
2022-10-17T18:11:22.737Z,12.00
2022-10-17T18:13:57.325Z,10.77
2022-10-17T18:16:25.476Z,10.82
2022-10-17T18:18:52.057Z,11.55
2022-10-17T18:21:18.760Z,12.35
2022-10-17T18:23:47.175Z,11.18
2022-10-17T18:26:15.150Z,11.60
2022-10-17T18:28:43.257Z,12.13
2022-10-17T18:31:24.341Z,11.38
2022-10-17T18:33:55.370Z,11.02
2022-10-17T18:36:22.700Z,11.02
2022-10-17T18:38:49.393Z,11.20
2022-10-17T18:41:19.586Z,11.13
2022-10-17T18:43:47.676Z,11.65
2022-10-17T18:46:17.629Z,10.60
2022-10-17T18:48:45.365Z,11.43
2022-10-17T18:51:13.565Z,9.77
2022-10-17T18:53:44.646Z,10.30
2022-10-17T18:56:11.967Z,10.15
2022-10-17T18:58:39.675Z,10.05
2022-10-17T19:01:16.713Z,10.52
2022-10-17T19:03:45.058Z,10.05
2022-10-17T19:06:15.103Z,10.63
2022-10-17T19:08:42.763Z,10.85
2022-10-17T19:11:12.192Z,10.52
2022-10-17T19:13:39.745Z,10.95
2022-10-17T19:16:10.859Z,9.52
2022-10-17T19:21:06.853Z,9.10
2022-10-17T19:23:35.396Z,9.82
2022-10-17T19:26:03.711Z,10.10
2022-10-17T19:28:30.359Z,10.15
2022-10-17T19:30:56.907Z,10.45
2022-10-17T19:33:24.233Z,9.82
2022-10-17T19:35:57.947Z,10.23
2022-10-17T19:38:24.881Z,10.52
2022-10-17T19:40:51.577Z,10.55
2022-10-17T19:43:19.616Z,10.18
2022-10-17T19:46:01.051Z,10.40
2022-10-17T19:48:30.607Z,11.02
2022-10-17T19:50:57.108Z,10.77
2022-10-17T19:53:24.298Z,10.75
2022-10-17T19:55:51.511Z,10.93
2022-10-17T19:58:17.886Z,11.23
2022-10-17T20:00:52.180Z,10.55
2022-10-17T20:03:18.954Z,10.60
2022-10-17T20:05:46.351Z,11.70
2022-10-17T20:08:14.423Z,10.95
2022-10-17T20:10:41.549Z,10.57
2022-10-17T20:13:11.387Z,11.60
2022-10-17T20:15:38.306Z,11.50
2022-10-17T20:18:08.776Z,11.35
2022-10-17T20:20:36.112Z,13.20
2022-10-17T20:23:03.608Z,10.93
2022-10-17T20:25:30.317Z,11.13
2022-10-17T20:27:56.949Z,11.55
2022-10-17T20:30:26.815Z,11.45
2022-10-17T20:32:59.639Z,12.52
2022-10-17T20:35:26.179Z,11.63
2022-10-17T20:37:53.194Z,12.52
2022-10-17T20:40:35.849Z,11.98
2022-10-17T20:43:04.850Z,11.73
2022-10-17T20:45:51.583Z,11.38
2022-10-17T20:48:18.577Z,11.85
2022-10-17T20:50:45.064Z,12.23
2022-10-17T20:56:08.415Z,12.43
2022-10-17T20:58:35.549Z,13.50
2022-10-17T21:01:09.928Z,14.15
2022-10-17T21:03:41.117Z,13.77
2022-10-17T21:06:11.165Z,11.80
2022-10-17T21:08:37.812Z,13.18
2022-10-17T21:11:21.855Z,12.65
2022-10-17T21:13:53.819Z,12.93
2022-10-17T21:16:20.323Z,13.00
2022-10-17T21:18:46.975Z,13.05
2022-10-17T21:21:14.851Z,13.18
2022-10-17T21:23:43.354Z,12.50
2022-10-17T21:26:12.175Z,11.35
2022-10-17T21:28:40.075Z,12.02
2022-10-17T21:31:22.631Z,11.80
2022-10-17T21:33:51.917Z,11.77
2022-10-17T21:36:19.283Z,11.80
2022-10-17T21:38:48.228Z,12.27
2022-10-17T21:41:16.083Z,11.40
2022-10-17T21:43:43.175Z,12.57
2022-10-17T21:46:12.932Z,11.18
2022-10-17T21:48:39.665Z,15.57
2022-10-17T21:51:08.988Z,14.10
2022-10-17T21:53:36.160Z,12.57
2022-10-17T21:56:06.102Z,11.77
2022-10-17T21:58:33.400Z,12.20
2022-10-17T22:01:15.733Z,11.57
2022-10-17T22:03:46.816Z,11.80
2022-10-17T22:09:06.714Z,11.48
2022-10-17T22:11:35.433Z,12.40
2022-10-17T22:14:07.295Z,11.93
2022-10-17T22:16:34.728Z,12.13
2022-10-17T22:19:05.948Z,11.70
2022-10-17T22:21:34.547Z,11.38
2022-10-17T22:24:03.123Z,11.00
2022-10-17T22:26:31.579Z,11.68
2022-10-17T22:28:58.026Z,11.45
2022-10-17T22:31:25.153Z,12.35
2022-10-17T22:33:51.877Z,12.18
2022-10-17T22:36:18.436Z,11.52
2022-10-17T22:38:44.813Z,11.27
2022-10-17T22:41:11.261Z,12.50
2022-10-17T22:43:37.664Z,12.35
2022-10-17T22:46:05.939Z,11.25
2022-10-17T22:48:32.996Z,11.80
2022-10-17T22:51:00.015Z,11.77
2022-10-17T22:53:27.048Z,12.80
2022-10-17T22:55:55.991Z,11.98
2022-10-17T22:58:23.243Z,12.15
2022-10-17T23:00:53.976Z,11.70
2022-10-17T23:03:21.366Z,11.02
2022-10-17T23:05:47.718Z,11.48
2022-10-17T23:08:15.266Z,10.95
2022-10-17T23:10:41.644Z,11.02
2022-10-17T23:13:08.052Z,11.55
2022-10-17T23:15:34.710Z,11.15
2022-10-17T23:18:01.268Z,11.57
2022-10-17T23:20:29.126Z,11.13
2022-10-17T23:22:56.383Z,11.02
2022-10-17T23:25:23.287Z,10.13
2022-10-17T23:27:49.616Z,10.35
2022-10-17T23:30:16.857Z,11.10
2022-10-17T23:32:43.285Z,10.52
2022-10-17T23:35:10.282Z,10.68
2022-10-17T23:37:37.159Z,10.55
2022-10-17T23:40:04.914Z,10.77
2022-10-17T23:42:31.436Z,10.45
2022-10-17T23:44:57.811Z,9.55
2022-10-17T23:47:24.140Z,10.65
2022-10-17T23:49:50.575Z,11.10
2022-10-17T23:52:16.931Z,10.15
2022-10-17T23:54:43.349Z,10.07
2022-10-17T23:57:09.676Z,10.48
2022-10-17T23:59:36.037Z,9.40
